Portada
METAR-TAF:

METAR-TAF

Aeropuertos :

Caracas, Venezuela

Aeropuerto Internacional de Maiquetía Simón Bolívar

latitud: 10-36N, longitud: 066-59W, altitud: 43 m

Observación

El informe se hizo hace 32 minutos, a las 09:00 UTC
Temperatura 25°C
Humedad 83%
Presión 1011 hPa
Visibilidad 10 km o más
Escasas nubes a una altura de 1600 ft

METAR: SVMI 240900Z /////KT 9999 FEW016 25/22 Q1011

Hora: 05:32 (09:32 UTC)

Pronóstico

El informe se hizo hace 5 horas y 32 minutos, a las 04:00 UTC
Pronóstico válido del 24 a las 06 UTC al 25 a las 06 UTC
Viento 4 kt del noreste
Visibilidad 10 km o más
Escasas nubes a una altura de 1600 ft
Evolucionando progresivamente
del 24 a las 06 UTC al 24 a las 10 UTC
Viento 10 kt del este
Visibilidad 10 km o más
Nubes dispersas a una altura de 1600 ft

TAF: SVMI 240400Z 2406/2506 05004KT 9999 FEW016 TX33/18Z TN25/09Z BECMG 2406/2410 09010KT 9999 SCT016

Observaciones y pronósticos meteorológicos de más de 4000 aeropuertos (mensajes METAR y TAF).

Los puntos amarillos y rojos representan las estaciones disponibles.

Ponga el ratón en el punto deseado para ver el nombre de la estación.

Haga clic para ver las observaciones y los pronósticos meteorológicos.

Para cambiar el mapa : haga clic en los botones verdes con una cruz de color negro para hacer un zoom, en el botón verde con un guión para alejar o en las flechas verdes para mapas adyacentes.


METAR-TAF: